createdAt,value
2022-10-02T00:00:00.373Z,95.5
2022-10-02T00:05:00.345Z,95.8
2022-10-02T00:10:00.319Z,95.5
2022-10-02T00:15:00.365Z,95.5
2022-10-02T00:20:00.345Z,95.5
2022-10-02T00:25:00.407Z,95.5
2022-10-02T00:30:00.388Z,95.5
2022-10-02T00:35:00.366Z,95.5
2022-10-02T00:40:00.353Z,95.2
2022-10-02T00:45:00.376Z,94.9
2022-10-02T00:50:00.520Z,95.2
2022-10-02T00:55:00.384Z,94.9
2022-10-02T01:00:00.414Z,95.5
2022-10-02T01:05:00.389Z,95.5
2022-10-02T01:10:00.531Z,95.6
2022-10-02T01:15:00.418Z,95.6
2022-10-02T01:20:00.403Z,95.6
2022-10-02T01:25:00.412Z,95.6
2022-10-02T01:30:00.411Z,95.9
2022-10-02T01:35:00.396Z,95.9
2022-10-02T01:40:00.417Z,95.6
2022-10-02T01:45:00.511Z,95.6
2022-10-02T01:50:00.603Z,95.6
2022-10-02T01:55:00.532Z,95.6
2022-10-02T02:00:00.398Z,95.6
2022-10-02T02:05:01.135Z,95.6
2022-10-02T02:10:01.263Z,95.3
2022-10-02T02:15:01.133Z,95.3
2022-10-02T02:20:01.160Z,95
2022-10-02T02:25:01.108Z,95
2022-10-02T02:30:01.129Z,95
2022-10-02T02:35:01.285Z,95
2022-10-02T02:40:01.108Z,95
2022-10-02T02:45:01.168Z,95
2022-10-02T02:50:01.153Z,95.3
2022-10-02T02:55:02.094Z,95.6
2022-10-02T03:00:01.118Z,95.6
2022-10-02T03:05:01.140Z,95.6
2022-10-02T03:10:01.183Z,95.6
2022-10-02T03:15:01.222Z,96
2022-10-02T03:20:01.249Z,96
2022-10-02T03:25:01.180Z,95.7
2022-10-02T03:30:01.182Z,96
2022-10-02T03:35:01.176Z,96.3
2022-10-02T03:40:01.184Z,96.3
2022-10-02T03:45:01.237Z,96.4
2022-10-02T03:50:01.202Z,96
2022-10-02T03:55:01.189Z,96.1
2022-10-02T04:00:01.191Z,96.1
2022-10-02T04:05:01.236Z,96.1
2022-10-02T04:10:01.377Z,96.4
2022-10-02T04:15:01.255Z,96.1
2022-10-02T04:20:01.325Z,95.8
2022-10-02T04:25:01.243Z,95.8
2022-10-02T04:30:02.421Z,95.8
2022-10-02T04:35:00.280Z,95.8
2022-10-02T04:40:00.463Z,95.8
2022-10-02T04:45:00.341Z,95.8
2022-10-02T04:50:00.389Z,95.8
2022-10-02T04:55:00.302Z,95.2
2022-10-02T05:00:00.326Z,95.2
2022-10-02T05:05:00.351Z,94.9
2022-10-02T05:10:00.335Z,94.8
2022-10-02T05:15:00.315Z,94.9
2022-10-02T05:20:00.318Z,95.1
2022-10-02T05:25:00.343Z,95.2
2022-10-02T05:30:00.398Z,95.2
2022-10-02T05:35:00.408Z,95.2
2022-10-02T05:40:00.378Z,95.5
2022-10-02T05:45:00.387Z,95.5
2022-10-02T05:50:00.321Z,95.5
2022-10-02T05:55:00.362Z,95.2
2022-10-02T06:00:00.391Z,95.5
2022-10-02T06:05:00.443Z,95.5
2022-10-02T06:10:00.557Z,95.2
2022-10-02T06:15:00.502Z,95.2
2022-10-02T06:20:03.211Z,94.9
2022-10-02T06:25:00.436Z,94.9
2022-10-02T06:30:00.634Z,94.9
2022-10-02T06:35:00.449Z,94.6
2022-10-02T06:40:00.475Z,94.6
2022-10-02T06:45:00.460Z,94.6
2022-10-02T06:50:00.474Z,94.7
2022-10-02T06:55:00.443Z,94.7
2022-10-02T07:00:00.629Z,94.4
2022-10-02T07:05:00.588Z,94.1
2022-10-02T07:10:00.607Z,94.2
2022-10-02T07:15:00.462Z,93.8
2022-10-02T07:20:00.607Z,93.5
2022-10-02T07:25:00.495Z,93.6
2022-10-02T07:30:00.472Z,93
2022-10-02T07:35:00.535Z,92
2022-10-02T07:40:00.501Z,92.4
2022-10-02T07:45:00.509Z,92
2022-10-02T07:50:00.484Z,91.1
2022-10-02T07:55:00.505Z,91.2
2022-10-02T08:00:00.499Z,90.5
2022-10-02T08:05:00.510Z,90.5
2022-10-02T08:10:00.510Z,90.5
2022-10-02T08:15:00.551Z,90.6
2022-10-02T08:20:00.508Z,91.3
2022-10-02T08:25:00.543Z,89.4
2022-10-02T08:30:00.526Z,88.8
2022-10-02T08:35:00.528Z,88.8
2022-10-02T08:40:00.597Z,88.2
2022-10-02T08:45:00.581Z,87.6
2022-10-02T08:50:00.736Z,87.6
2022-10-02T08:55:00.586Z,87.1
2022-10-02T09:00:00.589Z,84.9
2022-10-02T09:05:00.596Z,84.6
2022-10-02T09:10:00.556Z,83.6
2022-10-02T09:15:00.585Z,84.6
2022-10-02T09:20:00.569Z,83.7
2022-10-02T09:25:00.565Z,83.3
2022-10-02T09:30:00.569Z,84.3
2022-10-02T09:35:00.653Z,84.3
2022-10-02T09:40:00.751Z,84.3
2022-10-02T09:45:01.968Z,83.4
2022-10-02T09:50:00.708Z,83.4
2022-10-02T09:55:00.654Z,83.7
2022-10-02T10:00:00.789Z,84.6
2022-10-02T10:05:05.954Z,84.1
2022-10-02T10:10:00.749Z,83.5
2022-10-02T10:15:00.695Z,83.8
2022-10-02T10:20:00.668Z,83.5
2022-10-02T10:25:00.663Z,82.2
2022-10-02T10:30:00.575Z,82.5
2022-10-02T10:35:00.346Z,82.2
2022-10-02T10:40:00.254Z,83.4
2022-10-02T10:45:00.233Z,85.3
2022-10-02T10:50:00.303Z,85.9
2022-10-02T10:55:00.235Z,86.2
2022-10-02T11:00:00.241Z,87.1
2022-10-02T11:05:00.358Z,87.4
2022-10-02T11:10:00.255Z,88.4
2022-10-02T11:15:00.330Z,88.4
2022-10-02T11:20:00.262Z,88.1
2022-10-02T11:25:00.267Z,87.3
2022-10-02T11:30:00.283Z,86.6
2022-10-02T11:35:00.279Z,86
2022-10-02T11:40:00.277Z,86
2022-10-02T11:45:00.285Z,85.4
2022-10-02T11:50:00.338Z,86.3
2022-10-02T12:15:00.390Z,86.1
2022-10-02T12:30:00.632Z,85.2
2022-10-02T12:35:00.735Z,83.7
2022-10-02T12:40:00.494Z,83.7
2022-10-02T12:45:00.445Z,82.4
2022-10-02T12:50:00.469Z,82
2022-10-02T12:55:00.405Z,82.7
2022-10-02T13:00:00.481Z,83
2022-10-02T13:05:00.386Z,81.7
2022-10-02T13:10:00.438Z,80.4
2022-10-02T13:15:00.553Z,80.4
2022-10-02T13:20:00.488Z,80.1
2022-10-02T13:25:01.590Z,80.4
2022-10-02T13:30:00.399Z,80
2022-10-02T13:35:00.423Z,79.7
2022-10-02T13:40:00.410Z,79.1
2022-10-02T13:45:00.415Z,78.4
2022-10-02T13:50:00.436Z,77.4
2022-10-02T13:55:00.416Z,77.1
2022-10-02T14:00:00.440Z,76.8
2022-10-02T14:05:00.440Z,76.4
2022-10-02T14:10:00.438Z,76.4
2022-10-02T14:15:00.449Z,76.8
2022-10-02T14:20:00.508Z,76.1
2022-10-02T14:25:00.507Z,76.5
2022-10-02T14:30:02.090Z,76.4
2022-10-02T14:35:01.432Z,77.1
2022-10-02T14:40:00.537Z,76.1
2022-10-02T14:45:00.513Z,76.4
2022-10-02T14:50:00.522Z,73.6
2022-10-02T14:55:01.480Z,73.2
2022-10-02T15:00:00.560Z,73.9
2022-10-02T15:05:04.201Z,73.8
2022-10-02T15:10:00.766Z,74.4
2022-10-02T15:15:00.654Z,74.5
2022-10-02T15:20:00.739Z,73.8
2022-10-02T15:25:00.613Z,72.5
2022-10-02T15:30:00.853Z,71.3
2022-10-02T15:35:00.628Z,70.6
2022-10-02T15:40:00.834Z,70.3
2022-10-02T15:45:00.698Z,71.6
2022-10-02T15:50:00.939Z,70.9
2022-10-02T15:55:00.766Z,70.5
2022-10-02T16:00:00.772Z,69.9
2022-10-02T16:05:00.874Z,71.1
2022-10-02T16:10:00.686Z,70.5
2022-10-02T16:15:00.727Z,71.8
2022-10-02T16:20:00.798Z,71.8
2022-10-02T16:25:00.669Z,73
2022-10-02T16:30:00.609Z,73.6
2022-10-02T16:35:00.408Z,73.9
2022-10-02T16:40:00.372Z,73.9
2022-10-02T16:45:00.276Z,74.8
2022-10-02T16:50:00.368Z,74.8
2022-10-02T16:55:00.240Z,75.4
2022-10-02T17:00:00.237Z,75.4
2022-10-02T17:05:00.251Z,76.4
2022-10-02T17:10:00.256Z,77
2022-10-02T17:15:00.255Z,77
2022-10-02T17:20:00.269Z,77.9
2022-10-02T17:25:00.319Z,78.5
2022-10-02T17:30:00.810Z,78.8
2022-10-02T17:35:00.490Z,79.5
2022-10-02T17:40:00.441Z,79.8
2022-10-02T17:45:00.472Z,79.8
2022-10-02T17:50:00.435Z,80.4
2022-10-02T17:55:00.514Z,80.4
2022-10-02T18:00:04.012Z,81
2022-10-02T18:05:00.388Z,80.4
2022-10-02T18:10:00.434Z,81
2022-10-02T18:15:00.444Z,81.7
2022-10-02T18:20:00.531Z,81.6
2022-10-02T18:25:00.370Z,81.9
2022-10-02T18:30:00.430Z,82.6
2022-10-02T18:35:00.367Z,83.2
2022-10-02T18:40:06.218Z,82.9
2022-10-02T18:45:00.429Z,83.5
2022-10-02T18:50:00.424Z,83.5
2022-10-02T18:55:00.397Z,83.5
2022-10-02T19:00:00.693Z,83.8
2022-10-02T19:05:00.452Z,84.1
2022-10-02T19:10:00.472Z,84.1
2022-10-02T19:15:00.576Z,84.4
2022-10-02T19:20:00.403Z,84.7
2022-10-02T19:25:00.502Z,84.7
2022-10-02T19:30:00.399Z,84.7
2022-10-02T19:35:00.485Z,85
2022-10-02T19:40:00.421Z,85.1
2022-10-02T19:45:00.480Z,86.3
2022-10-02T19:50:00.465Z,86.6
2022-10-02T19:55:00.442Z,86.6
2022-10-02T20:00:00.422Z,86.6
2022-10-02T20:05:00.428Z,86.9
2022-10-02T20:10:00.441Z,87.2
2022-10-02T20:15:00.429Z,87.5
2022-10-02T20:20:00.450Z,87.1
2022-10-02T20:25:00.456Z,87.1
2022-10-02T20:30:00.447Z,87.1
2022-10-02T20:35:00.525Z,88
2022-10-02T20:40:02.566Z,88.3
2022-10-02T20:45:00.566Z,87.7
2022-10-02T20:50:00.611Z,88.3
2022-10-02T20:55:00.527Z,88
2022-10-02T21:00:00.858Z,87.7
2022-10-02T21:05:00.533Z,87.7
2022-10-02T21:10:00.711Z,88.3
2022-10-02T21:15:00.580Z,88.3
2022-10-02T21:20:00.605Z,87.7
2022-10-02T21:25:00.535Z,87.7
2022-10-02T21:30:00.649Z,88
2022-10-02T21:35:00.551Z,88.3
2022-10-02T21:40:00.578Z,88.3
2022-10-02T21:45:03.497Z,88
2022-10-02T21:50:00.561Z,88.3
2022-10-02T21:55:00.542Z,88.3
2022-10-02T22:00:00.600Z,88.3
2022-10-02T22:05:00.553Z,88.3
2022-10-02T22:10:00.550Z,88.3
2022-10-02T22:15:00.590Z,88.3
2022-10-02T22:20:00.583Z,88.6
2022-10-02T22:25:00.619Z,88.9
2022-10-02T22:30:00.843Z,88.6
2022-10-02T22:35:00.375Z,88.3
2022-10-02T22:40:00.321Z,88.2
2022-10-02T22:45:00.281Z,88.3
2022-10-02T22:50:00.322Z,88.2
2022-10-02T22:55:00.381Z,88.2
2022-10-02T23:00:00.521Z,88.2
2022-10-02T23:05:00.417Z,88.9
2022-10-02T23:10:00.568Z,88.8
2022-10-02T23:15:00.404Z,88.9
2022-10-02T23:20:00.312Z,88.8
2022-10-02T23:25:00.416Z,88.8
2022-10-02T23:30:00.330Z,88.2
2022-10-02T23:35:01.277Z,88.8
2022-10-02T23:40:00.332Z,88.4
2022-10-02T23:45:00.311Z,88.1
2022-10-02T23:50:00.332Z,88.7
2022-10-02T23:55:00.369Z,88.3
